Kezdőlap
METAR-TAF:

METAR-TAF

Repülőterek :

Berens River, Manitoba, Kanada

földrajzi szélesség: 52-21N, földrajzi hosszúság: 097-02W, magasság: 222 m

Jelenlegi meteorológiai megfigyelések

A jelentés 8 órával és 9 perccel ezelõtt készült, 21:00 UTC
Nyugat-északnyugati szél 5 kt
Hőmérséklet 21°C
Páratartalom 60%
Légköri nyomás 1020 hPa
Látótávolság: 24.1 km
Kevés felhő 2500 lábon
Szórványos felhőzet 23000 lábon

METAR: CYBV 212100Z 29005KT 15SM FEW025 SCT230 21/13 A3013 RMK CU1CC4 CU TR LAST STFD OBS/NEXT 241200UTC SLP209 DENSITY ALT 1400FT

Idő: 00:09 (05:09 UTC)


TAF: hiányzik

Meteorológiai megfigyelések és előrejelzések több, mint 4000 repülőtéren (METAR és TAF jelentéseket).

A térképen piros és sárga pontok jelzik az elérhető meteorológiai állomásokat.

Mozgassa az egeret a pont fölött, hogy megjelenjen az állomás neve.

Azután kattintson az időjárási megfigyelések és előrejelzések megtekintéséhez.

A térkép megváltoztatása: kattintson a fekete keresztel jelölt zöld gombra ráközelítéshez, a vonallal jelölt zöld gombra távolításhoz, vagy a zöld nyilakra a szomszédos térképek eléréséhez.


METAR-TAF: